sensor_id;sensor_type;location;lat;lon;timestamp;pressure;altitude;pressure_sealevel;temperature;humidity
72428;BME280;60419;48.880;18.036;2023-04-12T00:01:43;98654.69;;;5.89;69.63
72428;BME280;60419;48.880;18.036;2023-04-12T00:04:28;98651.28;;;6.08;69.78
72428;BME280;60419;48.880;18.036;2023-04-12T00:07:14;98647.53;;;6.33;69.43
72428;BME280;60419;48.880;18.036;2023-04-12T00:10:05;98651.31;;;6.51;68.01
72428;BME280;60419;48.880;18.036;2023-04-12T00:12:50;98649.31;;;6.37;68.66
72428;BME280;60419;48.880;18.036;2023-04-12T00:15:36;98662.44;;;6.82;67.17
72428;BME280;60419;48.880;18.036;2023-04-12T00:18:21;98664.72;;;6.75;66.70
72428;BME280;60419;48.880;18.036;2023-04-12T00:21:09;98678.78;;;7.04;65.94
72428;BME280;60419;48.880;18.036;2023-04-12T00:23:54;98675.59;;;7.21;65.08
72428;BME280;60419;48.880;18.036;2023-04-12T00:26:40;98672.31;;;7.05;65.44
72428;BME280;60419;48.880;18.036;2023-04-12T00:29:26;98678.75;;;7.23;65.21
72428;BME280;60419;48.880;18.036;2023-04-12T00:32:11;98672.91;;;7.21;65.15
72428;BME280;60419;48.880;18.036;2023-04-12T00:34:57;98670.69;;;7.23;64.81
72428;BME280;60419;48.880;18.036;2023-04-12T00:37:42;98674.34;;;7.32;64.33
72428;BME280;60419;48.880;18.036;2023-04-12T00:40:28;98670.38;;;7.11;64.86
72428;BME280;60419;48.880;18.036;2023-04-12T00:43:13;98667.34;;;6.56;67.59
72428;BME280;60419;48.880;18.036;2023-04-12T00:46:02;98669.09;;;6.47;67.58
72428;BME280;60419;48.880;18.036;2023-04-12T00:48:48;98656.75;;;5.97;69.15
72428;BME280;60419;48.880;18.036;2023-04-12T00:51:34;98653.66;;;6.14;69.82
72428;BME280;60419;48.880;18.036;2023-04-12T00:54:19;98647.03;;;6.07;70.02
72428;BME280;60419;48.880;18.036;2023-04-12T00:57:06;98651.41;;;6.21;68.86
72428;BME280;60419;48.880;18.036;2023-04-12T00:59:51;98649.47;;;6.03;70.20
72428;BME280;60419;48.880;18.036;2023-04-12T01:02:40;98652.19;;;6.22;69.19
72428;BME280;60419;48.880;18.036;2023-04-12T01:05:27;98644.28;;;6.55;68.10
72428;BME280;60419;48.880;18.036;2023-04-12T01:11:32;98649.66;;;6.74;66.83
72428;BME280;60419;48.880;18.036;2023-04-12T01:15:01;98648.88;;;6.92;66.90
72428;BME280;60419;48.880;18.036;2023-04-12T01:21:00;98643.81;;;6.91;65.23
72428;BME280;60419;48.880;18.036;2023-04-12T01:27:02;98629.34;;;6.86;64.62
72428;BME280;60419;48.880;18.036;2023-04-12T01:29:48;98627.78;;;6.85;64.70
72428;BME280;60419;48.880;18.036;2023-04-12T01:32:37;98631.97;;;6.92;64.08
72428;BME280;60419;48.880;18.036;2023-04-12T01:35:27;98622.31;;;6.53;66.39
72428;BME280;60419;48.880;18.036;2023-04-12T01:38:14;98619.66;;;6.29;67.15
72428;BME280;60419;48.880;18.036;2023-04-12T01:41:00;98622.25;;;6.58;66.15
72428;BME280;60419;48.880;18.036;2023-04-12T01:43:46;98627.16;;;6.08;67.21
72428;BME280;60419;48.880;18.036;2023-04-12T01:46:32;98625.75;;;6.34;67.01
72428;BME280;60419;48.880;18.036;2023-04-12T01:49:20;98624.56;;;5.73;68.63
72428;BME280;60419;48.880;18.036;2023-04-12T01:52:11;98624.19;;;5.56;69.31
72428;BME280;60419;48.880;18.036;2023-04-12T01:54:58;98591.28;;;4.87;71.56
72428;BME280;60419;48.880;18.036;2023-04-12T01:57:47;98613.75;;;4.36;74.56
72428;BME280;60419;48.880;18.036;2023-04-12T02:00:34;98620.03;;;4.66;73.73
72428;BME280;60419;48.880;18.036;2023-04-12T02:03:22;98592.88;;;4.88;72.04
72428;BME280;60419;48.880;18.036;2023-04-12T02:06:08;98625.84;;;4.78;73.60
72428;BME280;60419;48.880;18.036;2023-04-12T02:09:01;98622.81;;;4.95;72.73
72428;BME280;60419;48.880;18.036;2023-04-12T02:11:47;98626.19;;;5.45;71.66
72428;BME280;60419;48.880;18.036;2023-04-12T02:14:33;98623.94;;;5.57;70.28
72428;BME280;60419;48.880;18.036;2023-04-12T02:17:18;98629.59;;;5.80;69.64
72428;BME280;60419;48.880;18.036;2023-04-12T02:20:05;98626.81;;;5.32;70.69
72428;BME280;60419;48.880;18.036;2023-04-12T02:22:53;98611.50;;;5.67;70.34
72428;BME280;60419;48.880;18.036;2023-04-12T02:25:39;98627.03;;;6.18;68.00
72428;BME280;60419;48.880;18.036;2023-04-12T02:28:25;98624.13;;;6.38;66.69
72428;BME280;60419;48.880;18.036;2023-04-12T02:31:11;98627.94;;;6.32;66.60
72428;BME280;60419;48.880;18.036;2023-04-12T02:33:58;98624.13;;;6.38;66.41
72428;BME280;60419;48.880;18.036;2023-04-12T02:36:47;98641.19;;;5.75;68.83
72428;BME280;60419;48.880;18.036;2023-04-12T02:39:32;98614.66;;;5.74;68.15
72428;BME280;60419;48.880;18.036;2023-04-12T02:42:18;98629.00;;;6.12;66.88
72428;BME280;60419;48.880;18.036;2023-04-12T02:45:04;98596.69;;;5.98;66.86
72428;BME280;60419;48.880;18.036;2023-04-12T02:47:50;98622.63;;;5.79;67.50
72428;BME280;60419;48.880;18.036;2023-04-12T02:50:36;98617.97;;;5.37;69.37
72428;BME280;60419;48.880;18.036;2023-04-12T02:53:22;98619.31;;;5.34;69.76
72428;BME280;60419;48.880;18.036;2023-04-12T02:56:07;98601.69;;;5.28;69.17
72428;BME280;60419;48.880;18.036;2023-04-12T02:58:53;98601.13;;;5.60;68.34
72428;BME280;60419;48.880;18.036;2023-04-12T03:01:38;98595.03;;;5.78;67.79
72428;BME280;60419;48.880;18.036;2023-04-12T03:04:24;98599.34;;;5.50;67.90
72428;BME280;60419;48.880;18.036;2023-04-12T03:07:14;98595.81;;;5.55;68.85
72428;BME280;60419;48.880;18.036;2023-04-12T03:09:59;98594.63;;;4.68;71.88
72428;BME280;60419;48.880;18.036;2023-04-12T03:12:44;98588.59;;;4.47;73.12
72428;BME280;60419;48.880;18.036;2023-04-12T03:15:30;98570.38;;;4.49;72.76
72428;BME280;60419;48.880;18.036;2023-04-12T03:18:15;98592.13;;;4.33;73.71
72428;BME280;60419;48.880;18.036;2023-04-12T03:21:01;98581.88;;;3.95;75.07
72428;BME280;60419;48.880;18.036;2023-04-12T03:23:48;98577.22;;;4.21;74.39
72428;BME280;60419;48.880;18.036;2023-04-12T03:26:33;98580.59;;;4.42;73.77
72428;BME280;60419;48.880;18.036;2023-04-12T03:29:19;98578.56;;;5.08;70.96
72428;BME280;60419;48.880;18.036;2023-04-12T03:32:04;98581.84;;;5.00;71.55
72428;BME280;60419;48.880;18.036;2023-04-12T03:34:50;98577.03;;;5.60;69.11
72428;BME280;60419;48.880;18.036;2023-04-12T03:37:39;98570.56;;;5.85;67.79
72428;BME280;60419;48.880;18.036;2023-04-12T03:40:24;98567.19;;;5.98;67.17
72428;BME280;60419;48.880;18.036;2023-04-12T03:43:10;98560.59;;;5.67;67.56
72428;BME280;60419;48.880;18.036;2023-04-12T03:45:55;98556.53;;;4.42;72.39
72428;BME280;60419;48.880;18.036;2023-04-12T03:48:40;98553.88;;;4.37;73.57
72428;BME280;60419;48.880;18.036;2023-04-12T03:51:26;98536.50;;;4.35;72.75
72428;BME280;60419;48.880;18.036;2023-04-12T03:54:14;98553.56;;;4.83;72.02
72428;BME280;60419;48.880;18.036;2023-04-12T03:57:00;98550.16;;;4.73;71.41
72428;BME280;60419;48.880;18.036;2023-04-12T03:59:46;98551.72;;;5.18;70.52
72428;BME280;60419;48.880;18.036;2023-04-12T04:02:31;98550.59;;;5.48;68.78
72428;BME280;60419;48.880;18.036;2023-04-12T04:05:17;98559.31;;;5.35;68.30
72428;BME280;60419;48.880;18.036;2023-04-12T04:08:03;98552.97;;;5.55;67.89
72428;BME280;60419;48.880;18.036;2023-04-12T04:10:51;98555.84;;;5.34;67.51
72428;BME280;60419;48.880;18.036;2023-04-12T04:13:36;98546.06;;;5.20;67.24
72428;BME280;60419;48.880;18.036;2023-04-12T04:16:21;98543.53;;;5.33;67.61
72428;BME280;60419;48.880;18.036;2023-04-12T04:19:07;98538.75;;;5.54;66.37
72428;BME280;60419;48.880;18.036;2023-04-12T04:21:52;98540.94;;;5.52;66.49
72428;BME280;60419;48.880;18.036;2023-04-12T04:24:40;98545.03;;;5.45;65.98
72428;BME280;60419;48.880;18.036;2023-04-12T04:27:25;98542.88;;;5.47;66.35
72428;BME280;60419;48.880;18.036;2023-04-12T04:30:14;98558.03;;;5.27;68.07
72428;BME280;60419;48.880;18.036;2023-04-12T04:33:01;98557.78;;;5.53;67.07
72428;BME280;60419;48.880;18.036;2023-04-12T04:35:46;98552.84;;;5.65;67.16
72428;BME280;60419;48.880;18.036;2023-04-12T04:38:31;98555.94;;;5.24;67.48
72428;BME280;60419;48.880;18.036;2023-04-12T04:41:17;98558.06;;;4.88;68.92
72428;BME280;60419;48.880;18.036;2023-04-12T04:44:06;98567.75;;;4.39;71.28
72428;BME280;60419;48.880;18.036;2023-04-12T04:46:53;98565.44;;;5.06;69.99
72428;BME280;60419;48.880;18.036;2023-04-12T04:49:38;98550.69;;;5.38;68.93
72428;BME280;60419;48.880;18.036;2023-04-12T04:52:24;98546.91;;;5.15;69.04
72428;BME280;60419;48.880;18.036;2023-04-12T04:55:09;98548.22;;;5.47;68.06
72428;BME280;60419;48.880;18.036;2023-04-12T04:57:55;98554.56;;;4.98;68.79
72428;BME280;60419;48.880;18.036;2023-04-12T05:00:41;98557.88;;;4.40;71.33
72428;BME280;60419;48.880;18.036;2023-04-12T05:03:30;98555.31;;;3.34;75.42
72428;BME280;60419;48.880;18.036;2023-04-12T05:06:18;98570.00;;;2.85;78.81
72428;BME280;60419;48.880;18.036;2023-04-12T05:09:03;98542.72;;;3.55;78.13
72428;BME280;60419;48.880;18.036;2023-04-12T05:11:49;98559.72;;;4.39;74.43
72428;BME280;60419;48.880;18.036;2023-04-12T05:14:34;98569.00;;;4.97;72.64
72428;BME280;60419;48.880;18.036;2023-04-12T05:17:20;98559.59;;;5.33;70.79
72428;BME280;60419;48.880;18.036;2023-04-12T05:20:06;98559.41;;;5.25;70.58
72428;BME280;60419;48.880;18.036;2023-04-12T05:22:51;98553.59;;;5.12;70.92
72428;BME280;60419;48.880;18.036;2023-04-12T05:25:42;98555.34;;;4.98;72.11
72428;BME280;60419;48.880;18.036;2023-04-12T05:28:28;98554.81;;;4.96;72.38
72428;BME280;60419;48.880;18.036;2023-04-12T05:31:13;98560.34;;;4.26;74.77
72428;BME280;60419;48.880;18.036;2023-04-12T05:33:59;98563.72;;;4.81;73.85
72428;BME280;60419;48.880;18.036;2023-04-12T05:36:44;98565.84;;;5.53;71.60
72428;BME280;60419;48.880;18.036;2023-04-12T05:39:30;98561.69;;;5.90;70.11
72428;BME280;60419;48.880;18.036;2023-04-12T05:42:15;98555.72;;;6.17;70.23
72428;BME280;60419;48.880;18.036;2023-04-12T05:45:01;98565.22;;;6.66;68.07
72428;BME280;60419;48.880;18.036;2023-04-12T05:47:47;98554.69;;;6.88;66.73
72428;BME280;60419;48.880;18.036;2023-04-12T05:50:33;98543.00;;;6.98;66.19
72428;BME280;60419;48.880;18.036;2023-04-12T05:53:18;98550.88;;;6.76;66.90
72428;BME280;60419;48.880;18.036;2023-04-12T05:56:04;98559.53;;;6.54;68.27
72428;BME280;60419;48.880;18.036;2023-04-12T05:58:49;98556.28;;;6.14;68.75
72428;BME280;60419;48.880;18.036;2023-04-12T06:01:35;98562.91;;;5.20;72.13
72428;BME280;60419;48.880;18.036;2023-04-12T06:04:20;98561.97;;;5.06;72.60
72428;BME280;60419;48.880;18.036;2023-04-12T06:07:06;98567.00;;;4.73;72.93
72428;BME280;60419;48.880;18.036;2023-04-12T06:09:51;98559.47;;;4.80;73.92
72428;BME280;60419;48.880;18.036;2023-04-12T06:12:37;98563.94;;;4.90;73.80
72428;BME280;60419;48.880;18.036;2023-04-12T06:15:22;98567.63;;;5.63;72.96
72428;BME280;60419;48.880;18.036;2023-04-12T06:18:07;98564.47;;;5.79;70.78
72428;BME280;60419;48.880;18.036;2023-04-12T06:20:53;98548.16;;;5.76;69.44
72428;BME280;60419;48.880;18.036;2023-04-12T06:23:38;98560.44;;;6.63;67.61
72428;BME280;60419;48.880;18.036;2023-04-12T06:26:23;98566.69;;;7.10;67.40
72428;BME280;60419;48.880;18.036;2023-04-12T06:29:09;98564.81;;;7.43;63.98
72428;BME280;60419;48.880;18.036;2023-04-12T06:31:54;98561.56;;;7.88;62.68
72428;BME280;60419;48.880;18.036;2023-04-12T06:34:40;98563.97;;;6.96;67.27
72428;BME280;60419;48.880;18.036;2023-04-12T06:37:25;98571.41;;;6.85;68.13
72428;BME280;60419;48.880;18.036;2023-04-12T06:40:11;98572.31;;;7.27;67.02
72428;BME280;60419;48.880;18.036;2023-04-12T06:42:56;98572.44;;;7.36;66.36
72428;BME280;60419;48.880;18.036;2023-04-12T06:45:42;98571.91;;;7.20;66.41
72428;BME280;60419;48.880;18.036;2023-04-12T06:48:28;98562.63;;;6.80;68.32
72428;BME280;60419;48.880;18.036;2023-04-12T06:51:13;98555.09;;;6.44;68.99
72428;BME280;60419;48.880;18.036;2023-04-12T06:54:00;98551.25;;;7.35;66.56
72428;BME280;60419;48.880;18.036;2023-04-12T06:56:45;98558.84;;;7.46;65.13
72428;BME280;60419;48.880;18.036;2023-04-12T06:59:31;98549.56;;;7.39;65.07
72428;BME280;60419;48.880;18.036;2023-04-12T07:02:16;98552.84;;;7.36;66.18
72428;BME280;60419;48.880;18.036;2023-04-12T07:05:02;98530.19;;;7.83;64.38
72428;BME280;60419;48.880;18.036;2023-04-12T07:07:47;98540.84;;;8.16;62.68
72428;BME280;60419;48.880;18.036;2023-04-12T07:10:33;98547.91;;;8.26;61.90
72428;BME280;60419;48.880;18.036;2023-04-12T07:13:20;98539.06;;;8.48;61.97
72428;BME280;60419;48.880;18.036;2023-04-12T07:16:06;98541.59;;;8.67;61.66
72428;BME280;60419;48.880;18.036;2023-04-12T07:18:52;98537.38;;;8.52;62.75
72428;BME280;60419;48.880;18.036;2023-04-12T07:21:37;98469.59;;;8.50;60.22
72428;BME280;60419;48.880;18.036;2023-04-12T07:24:23;98536.03;;;9.08;61.01
72428;BME280;60419;48.880;18.036;2023-04-12T07:27:08;98529.31;;;8.97;62.24
72428;BME280;60419;48.880;18.036;2023-04-12T07:29:56;98512.09;;;8.84;59.14
72428;BME280;60419;48.880;18.036;2023-04-12T07:32:42;98519.50;;;8.56;58.33
72428;BME280;60419;48.880;18.036;2023-04-12T07:35:27;98520.56;;;8.32;56.91
72428;BME280;60419;48.880;18.036;2023-04-12T07:38:12;98518.81;;;8.14;57.46
72428;BME280;60419;48.880;18.036;2023-04-12T07:40:58;98518.47;;;7.79;58.71
72428;BME280;60419;48.880;18.036;2023-04-12T07:43:43;98516.56;;;7.66;58.61
72428;BME280;60419;48.880;18.036;2023-04-12T07:46:29;98503.25;;;7.14;58.14
72428;BME280;60419;48.880;18.036;2023-04-12T07:49:15;98512.63;;;7.30;59.60
72428;BME280;60419;48.880;18.036;2023-04-12T07:52:00;98519.50;;;7.37;57.78
72428;BME280;60419;48.880;18.036;2023-04-12T07:54:46;98513.13;;;7.32;57.78
72428;BME280;60419;48.880;18.036;2023-04-12T07:57:31;98509.88;;;7.77;57.98
72428;BME280;60419;48.880;18.036;2023-04-12T08:00:17;98465.31;;;6.88;58.99
72428;BME280;60419;48.880;18.036;2023-04-12T08:03:02;98508.19;;;6.93;58.99
72428;BME280;60419;48.880;18.036;2023-04-12T08:05:48;98509.19;;;7.58;57.20
72428;BME280;60419;48.880;18.036;2023-04-12T08:08:37;98503.91;;;7.80;56.93
72428;BME280;60419;48.880;18.036;2023-04-12T08:11:22;98488.59;;;8.53;55.23
72428;BME280;60419;48.880;18.036;2023-04-12T08:14:08;98493.94;;;9.21;54.05
72428;BME280;60419;48.880;18.036;2023-04-12T08:16:54;98490.16;;;7.68;57.12
72428;BME280;60419;48.880;18.036;2023-04-12T08:19:39;98490.78;;;8.29;55.32
72428;BME280;60419;48.880;18.036;2023-04-12T08:22:25;98498.13;;;7.73;57.89
72428;BME280;60419;48.880;18.036;2023-04-12T08:25:11;98486.81;;;8.26;56.08
72428;BME280;60419;48.880;18.036;2023-04-12T08:27:56;98490.59;;;9.15;55.09
72428;BME280;60419;48.880;18.036;2023-04-12T08:30:42;98491.63;;;9.28;53.73
72428;BME280;60419;48.880;18.036;2023-04-12T08:33:27;98492.44;;;9.28;53.94
72428;BME280;60419;48.880;18.036;2023-04-12T08:36:13;98490.13;;;9.22;53.62
72428;BME280;60419;48.880;18.036;2023-04-12T08:38:59;98495.72;;;9.57;52.01
72428;BME280;60419;48.880;18.036;2023-04-12T08:41:45;98482.34;;;9.43;52.54
72428;BME280;60419;48.880;18.036;2023-04-12T08:44:37;98466.03;;;9.48;51.90
72428;BME280;60419;48.880;18.036;2023-04-12T08:47:23;98466.56;;;9.59;51.73
72428;BME280;60419;48.880;18.036;2023-04-12T08:50:10;98459.19;;;9.42;52.70
72428;BME280;60419;48.880;18.036;2023-04-12T08:52:58;98460.91;;;9.06;52.41
72428;BME280;60419;48.880;18.036;2023-04-12T08:55:43;98450.16;;;9.46;52.72
72428;BME280;60419;48.880;18.036;2023-04-12T08:58:30;98465.66;;;9.89;51.85
72428;BME280;60419;48.880;18.036;2023-04-12T09:01:19;98455.84;;;9.45;52.69
72428;BME280;60419;48.880;18.036;2023-04-12T09:04:05;98459.66;;;9.44;52.55
72428;BME280;60419;48.880;18.036;2023-04-12T09:06:51;98432.50;;;9.80;51.56
72428;BME280;60419;48.880;18.036;2023-04-12T09:09:46;98462.19;;;9.98;50.76
72428;BME280;60419;48.880;18.036;2023-04-12T09:12:32;98453.38;;;9.26;50.73
72428;BME280;60419;48.880;18.036;2023-04-12T09:15:17;98447.31;;;9.12;50.77
72428;BME280;60419;48.880;18.036;2023-04-12T09:18:08;98445.38;;;10.01;49.90
72428;BME280;60419;48.880;18.036;2023-04-12T09:21:11;98449.50;;;10.50;47.91
72428;BME280;60419;48.880;18.036;2023-04-12T09:24:08;98410.59;;;9.90;47.58
72428;BME280;60419;48.880;18.036;2023-04-12T09:27:02;98439.31;;;9.78;49.05
72428;BME280;60419;48.880;18.036;2023-04-12T09:29:48;98435.03;;;10.64;48.55
72428;BME280;60419;48.880;18.036;2023-04-12T09:32:37;98431.31;;;11.41;47.32
72428;BME280;60419;48.880;18.036;2023-04-12T09:35:42;98433.63;;;11.22;47.18
72428;BME280;60419;48.880;18.036;2023-04-12T09:38:31;98415.50;;;11.82;46.89
72428;BME280;60419;48.880;18.036;2023-04-12T09:41:18;98414.63;;;11.90;47.46
72428;BME280;60419;48.880;18.036;2023-04-12T09:44:04;98409.25;;;10.83;50.13
72428;BME280;60419;48.880;18.036;2023-04-12T09:46:50;98402.75;;;11.82;46.65
72428;BME280;60419;48.880;18.036;2023-04-12T09:49:37;98397.16;;;12.29;45.68
72428;BME280;60419;48.880;18.036;2023-04-12T09:52:23;98390.75;;;12.13;44.74
72428;BME280;60419;48.880;18.036;2023-04-12T09:55:21;98399.00;;;11.07;46.71
72428;BME280;60419;48.880;18.036;2023-04-12T09:58:07;98396.59;;;10.58;47.85
72428;BME280;60419;48.880;18.036;2023-04-12T10:00:55;98387.16;;;10.81;47.58
72428;BME280;60419;48.880;18.036;2023-04-12T10:03:41;98390.81;;;10.94;47.53
72428;BME280;60419;48.880;18.036;2023-04-12T10:06:26;98384.22;;;11.13;46.59
72428;BME280;60419;48.880;18.036;2023-04-12T10:09:12;98369.63;;;11.35;46.72
72428;BME280;60419;48.880;18.036;2023-04-12T10:12:00;98369.63;;;11.64;46.04
72428;BME280;60419;48.880;18.036;2023-04-12T10:14:46;98369.88;;;11.21;46.44
72428;BME280;60419;48.880;18.036;2023-04-12T10:17:33;98352.41;;;11.18;45.21
72428;BME280;60419;48.880;18.036;2023-04-12T10:20:20;98355.81;;;11.36;44.57
72428;BME280;60419;48.880;18.036;2023-04-12T10:23:07;98354.34;;;11.09;45.69
72428;BME280;60419;48.880;18.036;2023-04-12T10:25:53;98359.22;;;11.75;44.86
72428;BME280;60419;48.880;18.036;2023-04-12T10:28:42;98347.47;;;11.20;46.56
72428;BME280;60419;48.880;18.036;2023-04-12T10:31:31;98363.28;;;12.02;45.11
72428;BME280;60419;48.880;18.036;2023-04-12T10:34:28;98350.22;;;12.04;43.66
72428;BME280;60419;48.880;18.036;2023-04-12T10:37:14;98353.00;;;12.50;42.63
72428;BME280;60419;48.880;18.036;2023-04-12T10:40:01;98346.72;;;12.70;43.16
72428;BME280;60419;48.880;18.036;2023-04-12T10:42:47;98340.09;;;12.80;43.00
72428;BME280;60419;48.880;18.036;2023-04-12T10:48:37;98352.50;;;11.31;43.41
72428;BME280;60419;48.880;18.036;2023-04-12T10:51:24;98349.44;;;11.62;43.70
72428;BME280;60419;48.880;18.036;2023-04-12T10:56:56;98338.19;;;11.51;43.55
72428;BME280;60419;48.880;18.036;2023-04-12T11:03:04;98317.19;;;12.11;43.93
72428;BME280;60419;48.880;18.036;2023-04-12T11:06:01;98315.44;;;12.48;42.42
72428;BME280;60419;48.880;18.036;2023-04-12T11:08:47;98313.75;;;13.17;41.65
72428;BME280;60419;48.880;18.036;2023-04-12T11:11:33;98311.31;;;12.42;42.54
72428;BME280;60419;48.880;18.036;2023-04-12T11:14:28;98305.41;;;12.73;41.96
72428;BME280;60419;48.880;18.036;2023-04-12T11:20:00;98292.47;;;13.44;40.77
72428;BME280;60419;48.880;18.036;2023-04-12T11:22:48;98290.50;;;11.88;43.18
72428;BME280;60419;48.880;18.036;2023-04-12T11:25:34;98286.81;;;11.93;43.44
72428;BME280;60419;48.880;18.036;2023-04-12T11:28:20;98280.44;;;12.43;42.22
72428;BME280;60419;48.880;18.036;2023-04-12T11:31:07;98271.06;;;12.65;41.92
72428;BME280;60419;48.880;18.036;2023-04-12T11:33:52;98265.53;;;12.49;42.70
72428;BME280;60419;48.880;18.036;2023-04-12T11:36:38;98267.81;;;12.96;41.69
72428;BME280;60419;48.880;18.036;2023-04-12T11:39:25;98262.16;;;12.40;42.74
72428;BME280;60419;48.880;18.036;2023-04-12T11:42:13;98261.69;;;11.51;42.60
72428;BME280;60419;48.880;18.036;2023-04-12T11:45:00;98260.69;;;12.43;43.02
72428;BME280;60419;48.880;18.036;2023-04-12T11:47:45;98255.72;;;12.94;41.17
72428;BME280;60419;48.880;18.036;2023-04-12T11:50:30;98266.56;;;12.82;41.10
72428;BME280;60419;48.880;18.036;2023-04-12T11:53:16;98262.72;;;12.70;41.21
72428;BME280;60419;48.880;18.036;2023-04-12T11:56:03;98260.69;;;12.92;40.37
72428;BME280;60419;48.880;18.036;2023-04-12T11:58:49;98243.72;;;13.07;41.74
72428;BME280;60419;48.880;18.036;2023-04-12T12:01:35;98238.66;;;13.06;42.11
72428;BME280;60419;48.880;18.036;2023-04-12T12:04:21;98250.97;;;12.78;41.85
72428;BME280;60419;48.880;18.036;2023-04-12T12:07:07;98261.47;;;12.68;42.27
72428;BME280;60419;48.880;18.036;2023-04-12T12:09:53;98246.91;;;13.09;40.27
72428;BME280;60419;48.880;18.036;2023-04-12T12:12:38;98245.94;;;13.42;40.23
72428;BME280;60419;48.880;18.036;2023-04-12T12:15:33;98228.84;;;13.54;41.23
72428;BME280;60419;48.880;18.036;2023-04-12T12:18:24;98244.41;;;13.04;41.73
72428;BME280;60419;48.880;18.036;2023-04-12T12:21:12;98242.88;;;13.43;40.71
72428;BME280;60419;48.880;18.036;2023-04-12T12:23:58;98239.47;;;13.59;40.86
72428;BME280;60419;48.880;18.036;2023-04-12T12:26:43;98230.47;;;13.30;39.96
72428;BME280;60419;48.880;18.036;2023-04-12T12:29:38;98229.16;;;13.64;40.89
72428;BME280;60419;48.880;18.036;2023-04-12T12:32:24;98234.97;;;13.38;40.91
72428;BME280;60419;48.880;18.036;2023-04-12T12:35:11;98230.41;;;13.02;39.91
72428;BME280;60419;48.880;18.036;2023-04-12T12:37:57;98220.59;;;12.61;39.96
72428;BME280;60419;48.880;18.036;2023-04-12T12:40:43;98218.38;;;12.87;40.09
72428;BME280;60419;48.880;18.036;2023-04-12T12:43:28;98205.91;;;13.11;39.81
72428;BME280;60419;48.880;18.036;2023-04-12T12:46:14;98203.50;;;13.62;39.10
72428;BME280;60419;48.880;18.036;2023-04-12T12:49:01;98190.28;;;14.04;38.82
72428;BME280;60419;48.880;18.036;2023-04-12T12:51:46;98196.50;;;13.49;39.01
72428;BME280;60419;48.880;18.036;2023-04-12T12:54:32;98183.13;;;13.68;39.71
72428;BME280;60419;48.880;18.036;2023-04-12T12:57:17;98179.22;;;13.81;40.20
72428;BME280;60419;48.880;18.036;2023-04-12T13:00:03;98178.53;;;13.56;38.04
72428;BME280;60419;48.880;18.036;2023-04-12T13:02:50;98183.72;;;13.61;37.32
72428;BME280;60419;48.880;18.036;2023-04-12T13:05:36;98149.41;;;13.41;39.09
72428;BME280;60419;48.880;18.036;2023-04-12T13:08:22;98172.66;;;13.54;38.45
72428;BME280;60419;48.880;18.036;2023-04-12T13:11:07;98169.09;;;13.94;39.14
72428;BME280;60419;48.880;18.036;2023-04-12T13:13:53;98167.44;;;13.61;38.08
72428;BME280;60419;48.880;18.036;2023-04-12T13:16:38;98160.44;;;13.20;37.94
72428;BME280;60419;48.880;18.036;2023-04-12T13:19:25;98159.94;;;13.71;36.87
72428;BME280;60419;48.880;18.036;2023-04-12T13:22:10;98152.84;;;13.82;36.04
72428;BME280;60419;48.880;18.036;2023-04-12T13:24:55;98137.38;;;13.98;35.56
72428;BME280;60419;48.880;18.036;2023-04-12T13:27:41;98132.81;;;14.18;35.18
72428;BME280;60419;48.880;18.036;2023-04-12T13:30:26;98131.50;;;14.79;33.55
72428;BME280;60419;48.880;18.036;2023-04-12T13:33:12;98120.97;;;14.42;33.47
72428;BME280;60419;48.880;18.036;2023-04-12T13:35:57;98123.59;;;14.39;32.14
72428;BME280;60419;48.880;18.036;2023-04-12T13:38:42;98115.66;;;14.65;28.61
72428;BME280;60419;48.880;18.036;2023-04-12T13:41:28;98114.66;;;14.54;26.99
72428;BME280;60419;48.880;18.036;2023-04-12T13:44:17;98108.59;;;14.96;28.00
72428;BME280;60419;48.880;18.036;2023-04-12T13:47:03;98109.81;;;15.60;28.32
72428;BME280;60419;48.880;18.036;2023-04-12T13:49:48;98102.22;;;14.88;28.77
72428;BME280;60419;48.880;18.036;2023-04-12T13:52:34;98085.97;;;15.96;28.14
72428;BME280;60419;48.880;18.036;2023-04-12T13:55:19;98091.88;;;15.56;28.73
72428;BME280;60419;48.880;18.036;2023-04-12T13:58:05;98093.56;;;16.10;28.19
72428;BME280;60419;48.880;18.036;2023-04-12T14:00:50;98082.94;;;16.28;28.17
72428;BME280;60419;48.880;18.036;2023-04-12T14:03:38;98094.63;;;15.79;27.85
72428;BME280;60419;48.880;18.036;2023-04-12T14:06:24;98083.53;;;15.91;27.81
72428;BME280;60419;48.880;18.036;2023-04-12T14:12:08;98080.66;;;14.64;28.81
72428;BME280;60419;48.880;18.036;2023-04-12T14:14:53;98074.50;;;14.12;29.59
72428;BME280;60419;48.880;18.036;2023-04-12T14:17:39;98074.53;;;14.31;30.50
72428;BME280;60419;48.880;18.036;2023-04-12T14:20:24;98069.06;;;15.02;29.64
72428;BME280;60419;48.880;18.036;2023-04-12T14:23:10;98081.94;;;15.25;29.27
72428;BME280;60419;48.880;18.036;2023-04-12T14:25:55;98083.09;;;15.66;29.67
72428;BME280;60419;48.880;18.036;2023-04-12T14:28:40;98085.31;;;15.37;28.80
72428;BME280;60419;48.880;18.036;2023-04-12T14:31:26;98077.75;;;15.73;30.08
72428;BME280;60419;48.880;18.036;2023-04-12T14:34:11;98069.91;;;16.14;28.41
72428;BME280;60419;48.880;18.036;2023-04-12T14:36:57;98077.25;;;15.87;29.93
72428;BME280;60419;48.880;18.036;2023-04-12T14:39:44;98074.75;;;16.01;28.89
72428;BME280;60419;48.880;18.036;2023-04-12T14:42:29;98075.03;;;15.50;29.26
72428;BME280;60419;48.880;18.036;2023-04-12T14:45:15;98070.66;;;14.84;29.67
72428;BME280;60419;48.880;18.036;2023-04-12T14:48:01;98075.88;;;15.12;29.83
72428;BME280;60419;48.880;18.036;2023-04-12T14:50:46;98067.38;;;15.56;30.66
72428;BME280;60419;48.880;18.036;2023-04-12T14:53:32;98059.00;;;15.45;30.54
72428;BME280;60419;48.880;18.036;2023-04-12T14:56:24;98076.84;;;15.43;31.10
72428;BME280;60419;48.880;18.036;2023-04-12T14:59:10;98068.00;;;15.49;29.70
72428;BME280;60419;48.880;18.036;2023-04-12T15:01:55;98057.09;;;15.92;28.78
72428;BME280;60419;48.880;18.036;2023-04-12T15:04:46;98051.72;;;16.48;28.26